createdAt,value
2018-01-05T00:01:15.619Z,10.50
2018-01-05T00:03:43.938Z,10.50
2018-01-05T00:06:12.236Z,10.50
2018-01-05T00:08:39.788Z,10.40
2018-01-05T00:11:07.307Z,10.40
2018-01-05T00:13:34.849Z,10.40
2018-01-05T00:16:02.411Z,10.30
2018-01-05T00:18:30.074Z,10.20
2018-01-05T00:20:57.586Z,10.30
2018-01-05T00:23:25.135Z,10.20
2018-01-05T00:25:52.668Z,10.10
2018-01-05T00:28:20.189Z,10.10
2018-01-05T00:30:47.714Z,9.90
2018-01-05T00:33:15.234Z,9.90
2018-01-05T00:35:42.777Z,9.90
2018-01-05T00:38:10.376Z,9.80
2018-01-05T00:40:37.914Z,9.90
2018-01-05T00:43:05.461Z,9.90
2018-01-05T00:45:32.975Z,9.90
2018-01-05T00:48:01.274Z,9.90
2018-01-05T00:50:30.472Z,9.90
2018-01-05T00:52:58.024Z,9.80
2018-01-05T00:55:25.538Z,9.90
2018-01-05T00:57:53.067Z,9.90
2018-01-05T01:00:20.613Z,9.90
2018-01-05T01:02:48.120Z,9.90
2018-01-05T01:05:15.649Z,9.80
2018-01-05T01:07:43.177Z,9.80
2018-01-05T01:10:11.590Z,9.70
2018-01-05T01:12:39.866Z,9.60
2018-01-05T01:15:07.401Z,9.60
2018-01-05T01:17:34.960Z,9.70
2018-01-05T01:20:02.474Z,9.70
2018-01-05T01:22:30.022Z,9.70
2018-01-05T01:24:58.349Z,9.70
2018-01-05T01:27:25.878Z,9.50
2018-01-05T01:29:53.401Z,9.70
2018-01-05T01:32:20.932Z,9.80
2018-01-05T01:34:48.473Z,9.80
2018-01-05T01:37:15.975Z,9.80
2018-01-05T01:39:43.599Z,9.80
2018-01-05T01:42:11.130Z,9.70
2018-01-05T01:44:38.663Z,9.60
2018-01-05T01:47:06.999Z,9.60
2018-01-05T01:49:35.298Z,9.70
2018-01-05T01:52:03.586Z,9.60
2018-01-05T01:54:31.134Z,9.60
2018-01-05T01:56:58.667Z,9.60
2018-01-05T01:59:26.195Z,9.60
2018-01-05T02:01:53.731Z,9.50
2018-01-05T02:04:22.003Z,9.50
2018-01-05T02:06:49.550Z,9.50
2018-01-05T02:09:17.061Z,9.50
2018-01-05T02:11:44.575Z,9.50
2018-01-05T02:14:12.101Z,9.60
2018-01-05T02:16:39.633Z,9.60
2018-01-05T02:19:07.159Z,9.60
2018-01-05T02:21:34.702Z,9.60
2018-01-05T02:24:02.242Z,9.60
2018-01-05T02:26:29.800Z,9.50
2018-01-05T02:28:57.351Z,9.40
2018-01-05T02:31:24.934Z,9.30
2018-01-05T02:33:52.508Z,9.20
2018-01-05T02:36:20.029Z,9.20
2018-01-05T02:38:47.569Z,9.10
2018-01-05T02:41:15.120Z,9.00
2018-01-05T02:43:42.626Z,9.00
2018-01-05T02:46:10.239Z,8.90
2018-01-05T02:48:37.745Z,8.60
2018-01-05T02:51:06.036Z,8.80
2018-01-05T02:53:34.348Z,8.90
2018-01-05T02:56:02.658Z,8.80
2018-01-05T02:58:30.946Z,8.90
2018-01-05T03:00:59.241Z,8.90
2018-01-05T03:03:26.793Z,8.90
2018-01-05T03:05:54.302Z,8.90
2018-01-05T03:08:21.836Z,9.00
2018-01-05T03:10:49.370Z,9.00
2018-01-05T03:13:16.904Z,9.00
2018-01-05T03:15:44.450Z,9.10
2018-01-05T03:18:12.734Z,9.10
2018-01-05T03:20:40.250Z,9.10
2018-01-05T03:23:08.674Z,9.10
2018-01-05T03:25:36.201Z,9.10
2018-01-05T03:28:03.722Z,9.10
2018-01-05T03:30:32.050Z,9.00
2018-01-05T03:32:59.579Z,9.00
2018-01-05T03:35:27.087Z,9.00
2018-01-05T03:37:55.398Z,9.00
2018-01-05T03:40:22.922Z,9.00
2018-01-05T03:42:50.464Z,9.00
2018-01-05T03:45:18.019Z,9.00
2018-01-05T03:47:45.536Z,9.10
2018-01-05T03:50:13.090Z,9.10
2018-01-05T03:52:56.957Z,9.20
2018-01-05T03:55:24.541Z,9.30
2018-01-05T03:57:52.074Z,9.20
2018-01-05T04:00:19.607Z,9.20
2018-01-05T04:02:47.136Z,9.40
2018-01-05T04:05:14.686Z,9.30
2018-01-05T04:07:42.973Z,9.20
2018-01-05T04:10:10.545Z,9.50
2018-01-05T04:12:38.078Z,9.40
2018-01-05T04:15:05.613Z,9.40
2018-01-05T04:17:33.144Z,9.30
2018-01-05T04:20:00.660Z,9.30
2018-01-05T04:22:28.182Z,9.30
2018-01-05T04:24:55.696Z,9.30
2018-01-05T04:27:23.228Z,9.20
2018-01-05T04:29:51.643Z,9.20
2018-01-05T04:32:19.194Z,9.20
2018-01-05T04:34:46.746Z,9.10
2018-01-05T04:37:15.041Z,9.10
2018-01-05T04:39:43.318Z,9.10
2018-01-05T04:42:10.846Z,9.10
2018-01-05T04:44:38.359Z,9.00
2018-01-05T04:47:05.909Z,8.90
2018-01-05T04:49:33.443Z,8.80
2018-01-05T04:52:00.970Z,8.80
2018-01-05T04:54:28.535Z,8.70
2018-01-05T04:56:56.806Z,8.60
2018-01-05T04:59:24.373Z,8.60
2018-01-05T05:01:51.918Z,8.60
2018-01-05T05:04:20.198Z,8.70
2018-01-05T05:06:48.563Z,8.70
2018-01-05T05:09:16.078Z,8.70
2018-01-05T05:11:43.606Z,8.70
2018-01-05T05:14:11.133Z,8.70
2018-01-05T05:16:38.781Z,8.70
2018-01-05T05:19:06.310Z,8.80
2018-01-05T05:21:33.822Z,8.80
2018-01-05T05:24:02.120Z,8.90
2018-01-05T05:26:29.661Z,8.90
2018-01-05T05:28:57.216Z,8.90
2018-01-05T05:31:24.906Z,8.90
2018-01-05T05:33:53.185Z,8.90
2018-01-05T05:36:21.642Z,8.90
2018-01-05T05:38:49.163Z,8.90
2018-01-05T05:41:16.710Z,9.00
2018-01-05T05:43:44.311Z,8.90
2018-01-05T05:46:11.794Z,8.90
2018-01-05T05:48:39.377Z,8.90
2018-01-05T05:51:06.913Z,9.00
2018-01-05T05:53:34.446Z,9.00
2018-01-05T05:56:01.992Z,9.00
2018-01-05T05:58:30.295Z,8.90
2018-01-05T06:00:57.835Z,8.90
2018-01-05T06:03:25.403Z,9.00
2018-01-05T06:05:54.625Z,9.00
2018-01-05T06:08:22.162Z,9.00
2018-01-05T06:10:49.670Z,9.00
2018-01-05T06:13:17.240Z,9.00
2018-01-05T06:15:44.794Z,8.90
2018-01-05T06:18:13.103Z,8.80
2018-01-05T06:20:41.404Z,8.80
2018-01-05T06:23:09.012Z,8.80
2018-01-05T06:25:36.547Z,8.80
2018-01-05T06:28:04.859Z,8.80
2018-01-05T06:30:33.166Z,8.80
2018-01-05T06:33:01.456Z,8.80
2018-01-05T06:35:29.775Z,8.80
2018-01-05T06:37:57.308Z,8.80
2018-01-05T06:40:24.858Z,8.80
2018-01-05T06:42:52.404Z,8.80
2018-01-05T06:45:20.710Z,8.70
2018-01-05T06:47:49.030Z,8.80
2018-01-05T06:50:16.574Z,8.80
2018-01-05T06:52:44.114Z,8.80
2018-01-05T06:55:11.769Z,8.80
2018-01-05T06:57:40.090Z,8.80
2018-01-05T07:00:07.639Z,8.80
2018-01-05T07:02:36.122Z,8.80
2018-01-05T07:05:03.656Z,8.80
2018-01-05T07:07:31.202Z,8.90
2018-01-05T07:09:58.784Z,9.00
2018-01-05T07:12:26.394Z,9.10
2018-01-05T07:14:54.700Z,9.10
2018-01-05T07:17:23.022Z,9.10
2018-01-05T07:19:50.730Z,9.10
2018-01-05T07:22:18.277Z,9.20
2018-01-05T07:24:45.815Z,9.20
2018-01-05T07:27:13.346Z,9.20
2018-01-05T07:29:41.079Z,9.20
2018-01-05T07:32:08.612Z,9.30
2018-01-05T07:34:36.152Z,9.40
2018-01-05T07:37:03.723Z,9.50
2018-01-05T07:39:31.252Z,9.60
2018-01-05T07:41:58.803Z,9.60
2018-01-05T07:44:26.349Z,9.70
2018-01-05T07:46:54.655Z,9.90
2018-01-05T07:49:22.955Z,10.10
2018-01-05T07:51:51.271Z,10.30
2018-01-05T07:54:19.599Z,10.40
2018-01-05T07:56:47.159Z,10.40
2018-01-05T07:59:14.724Z,10.60
2018-01-05T08:01:43.031Z,11.10
2018-01-05T08:04:11.317Z,11.60
2018-01-05T08:06:38.859Z,11.40
2018-01-05T08:09:07.212Z,12.50
2018-01-05T08:11:34.723Z,12.50
2018-01-05T08:14:02.273Z,12.80
2018-01-05T08:16:29.800Z,13.00
2018-01-05T08:18:57.346Z,13.50
2018-01-05T08:21:24.923Z,13.70
2018-01-05T08:23:52.446Z,13.60
2018-01-05T08:26:20.777Z,13.50
2018-01-05T08:28:49.094Z,13.40
2018-01-05T08:31:16.610Z,13.40
2018-01-05T08:33:44.918Z,13.30
2018-01-05T08:36:13.238Z,13.50
2018-01-05T08:38:40.809Z,13.40
2018-01-05T08:41:09.132Z,14.00
2018-01-05T08:43:36.643Z,14.00
2018-01-05T08:46:04.183Z,14.60
2018-01-05T08:48:31.870Z,15.00
2018-01-05T08:50:59.389Z,15.30
2018-01-05T08:53:26.938Z,15.30
2018-01-05T08:55:54.882Z,15.10
2018-01-05T08:58:22.444Z,14.90
2018-01-05T09:00:50.005Z,14.80
2018-01-05T09:03:17.610Z,14.60
2018-01-05T09:05:45.989Z,14.60
2018-01-05T09:08:14.321Z,14.50
2018-01-05T09:10:41.878Z,14.50
2018-01-05T09:13:10.179Z,14.60
2018-01-05T09:15:38.488Z,14.80
2018-01-05T09:18:06.012Z,14.70
2018-01-05T09:20:34.379Z,15.10
2018-01-05T09:23:01.955Z,14.90
2018-01-05T09:25:29.521Z,15.10
2018-01-05T09:27:57.851Z,15.00
2018-01-05T09:30:25.598Z,15.00
2018-01-05T09:32:53.116Z,14.80
2018-01-05T09:35:20.665Z,14.80
2018-01-05T09:37:48.195Z,14.80
2018-01-05T09:40:15.775Z,14.90
2018-01-05T09:42:43.316Z,15.00
2018-01-05T09:45:10.921Z,15.10
2018-01-05T09:47:39.252Z,14.90
2018-01-05T09:50:06.836Z,14.80
2018-01-05T09:52:35.058Z,15.00
2018-01-05T09:55:02.610Z,15.10
2018-01-05T09:57:30.329Z,15.30
2018-01-05T09:59:57.932Z,15.70
2018-01-05T10:02:25.572Z,16.10
2018-01-05T10:04:53.140Z,16.60
2018-01-05T10:07:21.504Z,17.10
2018-01-05T10:09:49.088Z,17.00
2018-01-05T10:12:16.629Z,17.20
2018-01-05T10:14:44.947Z,17.70
2018-01-05T10:17:12.531Z,17.60
2018-01-05T10:19:40.073Z,17.70
2018-01-05T10:22:08.393Z,17.20
2018-01-05T10:24:35.931Z,17.00
2018-01-05T10:27:04.458Z,16.90
2018-01-05T10:29:32.135Z,16.40
2018-01-05T10:31:59.650Z,16.30
2018-01-05T10:34:28.021Z,16.20
2018-01-05T10:36:55.582Z,16.20
2018-01-05T10:39:23.123Z,16.20
2018-01-05T10:41:51.619Z,15.80
2018-01-05T10:44:19.919Z,15.70
2018-01-05T10:46:48.232Z,15.70
2018-01-05T10:49:15.778Z,15.70
2018-01-05T10:51:43.346Z,15.70
2018-01-05T10:54:11.041Z,15.70
2018-01-05T10:56:38.566Z,15.70
2018-01-05T10:59:06.922Z,15.90
2018-01-05T11:01:34.482Z,15.90
2018-01-05T11:04:02.010Z,16.00
2018-01-05T11:06:29.582Z,16.20
2018-01-05T11:08:57.122Z,16.20
2018-01-05T11:11:24.714Z,16.20
2018-01-05T11:13:52.354Z,16.10
2018-01-05T11:16:19.902Z,16.00
2018-01-05T11:18:47.680Z,15.90
2018-01-05T11:21:15.221Z,15.80
2018-01-05T11:23:42.777Z,15.80
2018-01-05T11:26:10.328Z,15.70
2018-01-05T11:28:37.887Z,15.60
2018-01-05T11:31:06.235Z,15.70
2018-01-05T11:33:33.778Z,15.70
2018-01-05T11:36:02.208Z,15.70
2018-01-05T11:38:29.730Z,15.70
2018-01-05T11:40:57.269Z,15.70
2018-01-05T11:43:24.935Z,15.70
2018-01-05T11:45:52.645Z,15.60
2018-01-05T11:48:20.231Z,15.70
2018-01-05T11:50:47.835Z,15.80
2018-01-05T11:53:15.374Z,15.80
2018-01-05T11:55:43.827Z,15.60
2018-01-05T11:58:11.446Z,15.60
2018-01-05T12:00:38.990Z,15.50
2018-01-05T12:03:06.571Z,15.40
2018-01-05T12:05:34.110Z,15.30
2018-01-05T12:08:02.410Z,15.20
2018-01-05T12:10:30.838Z,15.30
2018-01-05T12:12:58.406Z,15.20
2018-01-05T12:15:26.746Z,15.20
2018-01-05T12:17:54.289Z,15.20
2018-01-05T12:20:21.884Z,15.30
2018-01-05T12:22:50.183Z,15.40
2018-01-05T12:25:18.549Z,15.60
2018-01-05T12:27:46.109Z,15.50
2018-01-05T12:30:13.632Z,15.70
2018-01-05T12:32:41.171Z,15.70
2018-01-05T12:35:08.761Z,15.80
2018-01-05T12:37:36.288Z,15.90
2018-01-05T12:40:03.820Z,15.80
2018-01-05T12:42:31.436Z,15.90
2018-01-05T12:44:59.004Z,15.90
2018-01-05T12:47:26.593Z,15.90
2018-01-05T12:49:54.125Z,15.90
2018-01-05T12:52:22.441Z,15.80
2018-01-05T12:54:49.997Z,15.80
2018-01-05T12:57:17.725Z,15.80
2018-01-05T12:59:45.250Z,15.70
2018-01-05T13:02:12.781Z,15.80
2018-01-05T13:04:40.328Z,15.70
2018-01-05T13:07:07.850Z,15.70
2018-01-05T13:09:35.400Z,15.60
2018-01-05T13:12:02.989Z,15.50
2018-01-05T13:14:30.529Z,15.50
2018-01-05T13:16:58.070Z,15.40
2018-01-05T13:19:26.417Z,15.40
2018-01-05T13:21:53.988Z,15.40
2018-01-05T13:24:21.518Z,15.40
2018-01-05T13:26:49.127Z,15.40
2018-01-05T13:29:17.492Z,15.30
2018-01-05T13:31:45.045Z,15.30
2018-01-05T13:34:12.641Z,15.30
2018-01-05T13:36:40.161Z,15.50
2018-01-05T13:39:07.698Z,15.30
2018-01-05T13:41:35.279Z,15.40
2018-01-05T13:44:02.823Z,15.40
2018-01-05T13:46:30.382Z,15.50
2018-01-05T13:48:57.963Z,15.40
2018-01-05T13:51:25.577Z,15.30
2018-01-05T13:53:53.145Z,15.30
2018-01-05T13:56:20.713Z,15.40
2018-01-05T13:58:48.242Z,15.40
2018-01-05T14:01:15.775Z,15.30
2018-01-05T14:03:43.307Z,15.20
2018-01-05T14:06:10.877Z,15.30
2018-01-05T14:08:38.449Z,15.20
2018-01-05T14:11:06.036Z,15.20
2018-01-05T14:13:33.592Z,15.20
2018-01-05T14:16:01.152Z,15.20
2018-01-05T14:18:29.516Z,15.20
2018-01-05T14:20:57.061Z,15.10
2018-01-05T14:23:24.727Z,15.10
2018-01-05T14:25:53.014Z,14.90
2018-01-05T14:28:20.586Z,14.90
2018-01-05T14:30:48.110Z,14.90
2018-01-05T14:33:16.431Z,14.60
2018-01-05T14:35:44.028Z,14.60
2018-01-05T14:38:12.382Z,14.50
2018-01-05T14:40:39.933Z,14.50
2018-01-05T14:43:07.527Z,14.30
2018-01-05T14:45:35.074Z,14.20
2018-01-05T14:48:02.778Z,14.00
2018-01-05T14:50:30.356Z,13.90
2018-01-05T14:52:57.918Z,13.90
2018-01-05T14:55:26.300Z,13.60
2018-01-05T14:57:53.906Z,13.60
2018-01-05T15:00:21.472Z,13.50
2018-01-05T15:02:49.019Z,13.50
2018-01-05T15:05:16.550Z,13.40
2018-01-05T15:07:44.108Z,13.30
2018-01-05T15:10:11.815Z,13.10
2018-01-05T15:12:39.444Z,13.20
2018-01-05T15:15:07.221Z,13.20
2018-01-05T15:17:34.832Z,13.10
2018-01-05T15:20:02.366Z,13.00
2018-01-05T15:22:30.685Z,13.00
2018-01-05T15:24:58.284Z,12.90
2018-01-05T15:27:25.908Z,12.90
2018-01-05T15:29:53.479Z,12.90
2018-01-05T15:32:21.027Z,12.80
2018-01-05T15:34:48.615Z,12.70
2018-01-05T15:37:16.208Z,12.70
2018-01-05T15:39:43.757Z,12.70
2018-01-05T15:42:11.411Z,12.70
2018-01-05T15:44:38.984Z,12.70
2018-01-05T15:47:06.539Z,12.70
2018-01-05T15:49:34.049Z,12.60
2018-01-05T15:52:01.633Z,12.50
2018-01-05T15:54:29.160Z,12.50
2018-01-05T15:56:56.704Z,12.60
2018-01-05T15:59:24.246Z,12.60
2018-01-05T16:01:52.576Z,12.50
2018-01-05T16:04:20.092Z,12.50
2018-01-05T16:06:47.649Z,12.60
2018-01-05T16:09:15.192Z,12.60
2018-01-05T16:11:42.734Z,12.60
2018-01-05T16:14:10.306Z,12.60
2018-01-05T16:16:37.866Z,12.60
2018-01-05T16:19:06.425Z,12.70
2018-01-05T16:21:33.989Z,12.60
2018-01-05T16:24:02.351Z,12.20
2018-01-05T16:26:31.660Z,12.20
2018-01-05T16:28:59.228Z,12.20
2018-01-05T16:31:27.511Z,12.10
2018-01-05T16:33:55.065Z,12.20
2018-01-05T16:36:22.608Z,12.10
2018-01-05T16:38:50.134Z,12.00
2018-01-05T16:41:17.788Z,11.90
2018-01-05T16:43:46.080Z,11.90
2018-01-05T16:46:13.610Z,11.90
2018-01-05T16:48:41.160Z,11.90
2018-01-05T16:51:08.708Z,11.70
2018-01-05T16:53:36.298Z,11.80
2018-01-05T16:56:03.832Z,11.80
2018-01-05T16:58:31.573Z,11.90
2018-01-05T17:00:59.109Z,11.90
2018-01-05T17:03:26.642Z,11.90
2018-01-05T17:05:54.175Z,11.90
2018-01-05T17:08:21.713Z,11.90
2018-01-05T17:10:49.253Z,12.00
2018-01-05T17:13:16.895Z,12.00
2018-01-05T17:15:44.430Z,12.00
2018-01-05T17:18:12.120Z,12.00
2018-01-05T17:20:39.792Z,12.00
2018-01-05T17:23:07.413Z,12.10
2018-01-05T17:25:34.939Z,12.10
2018-01-05T17:28:03.244Z,12.20
2018-01-05T17:30:31.605Z,12.20
2018-01-05T17:32:59.155Z,12.20
2018-01-05T17:35:26.691Z,12.20
2018-01-05T17:37:54.242Z,12.30
2018-01-05T17:40:21.812Z,12.30
2018-01-05T17:42:49.332Z,12.30
2018-01-05T17:45:16.890Z,12.30
2018-01-05T17:47:44.538Z,12.20
2018-01-05T17:50:13.116Z,12.20
2018-01-05T17:52:40.644Z,12.10
2018-01-05T17:55:08.173Z,12.10
2018-01-05T17:57:35.758Z,12.10
2018-01-05T18:00:03.379Z,12.10
2018-01-05T18:02:30.931Z,12.10
2018-01-05T18:04:58.469Z,12.20
2018-01-05T18:07:26.087Z,12.10
2018-01-05T18:09:53.646Z,12.10
2018-01-05T18:12:21.179Z,12.20
2018-01-05T18:14:48.746Z,12.20
2018-01-05T18:17:16.266Z,12.10
2018-01-05T18:19:44.614Z,12.10
2018-01-05T18:22:12.163Z,12.10
2018-01-05T18:24:40.477Z,12.00
2018-01-05T18:27:08.880Z,12.00
2018-01-05T18:29:36.418Z,12.00
2018-01-05T18:32:03.969Z,11.90
2018-01-05T18:34:31.578Z,11.90
2018-01-05T18:36:59.135Z,11.80
2018-01-05T18:39:26.786Z,11.60
2018-01-05T18:41:54.360Z,11.80
2018-01-05T18:44:22.688Z,11.90
2018-01-05T18:46:51.137Z,11.90
2018-01-05T18:49:18.835Z,11.90
2018-01-05T18:51:46.375Z,11.90
2018-01-05T18:54:13.919Z,12.10
2018-01-05T18:56:41.448Z,12.10
2018-01-05T18:59:09.015Z,12.00
2018-01-05T19:01:36.625Z,12.10
2018-01-05T19:04:04.164Z,12.20
2018-01-05T19:06:32.588Z,11.90
2018-01-05T19:09:00.126Z,12.10
2018-01-05T19:11:27.667Z,12.30
2018-01-05T19:13:55.236Z,12.30
2018-01-05T19:16:23.638Z,12.30
2018-01-05T19:18:52.134Z,12.30
2018-01-05T19:21:19.718Z,12.30
2018-01-05T19:23:48.186Z,12.30
2018-01-05T19:26:15.735Z,12.40
2018-01-05T19:28:43.284Z,12.40
2018-01-05T19:31:10.833Z,12.50
2018-01-05T19:33:38.407Z,12.50
2018-01-05T19:36:05.950Z,12.50
2018-01-05T19:38:34.285Z,12.60
2018-01-05T19:41:01.831Z,12.50
2018-01-05T19:43:30.114Z,12.60
2018-01-05T19:45:57.647Z,12.60
2018-01-05T19:48:25.208Z,12.50
2018-01-05T19:50:52.877Z,12.60
2018-01-05T19:53:20.408Z,12.60
2018-01-05T19:55:47.943Z,12.60
2018-01-05T19:58:15.522Z,12.60
2018-01-05T20:00:43.088Z,12.40
2018-01-05T20:03:11.426Z,11.80
2018-01-05T20:05:39.774Z,11.40
2018-01-05T20:08:07.337Z,11.60
2018-01-05T20:10:34.923Z,11.50
2018-01-05T20:13:02.688Z,11.40
2018-01-05T20:15:30.244Z,11.30
2018-01-05T20:17:57.795Z,11.10
2018-01-05T20:20:25.418Z,10.90
2018-01-05T20:22:52.959Z,10.70
2018-01-05T20:25:20.507Z,10.60
2018-01-05T20:27:48.042Z,10.50
2018-01-05T20:30:16.540Z,10.50
2018-01-05T20:32:44.108Z,10.50
2018-01-05T20:35:11.807Z,10.40
2018-01-05T20:37:39.363Z,10.20
2018-01-05T20:40:06.957Z,10.30
2018-01-05T20:42:34.522Z,10.30
2018-01-05T20:45:02.074Z,10.20
2018-01-05T20:47:29.627Z,10.20
2018-01-05T20:49:57.169Z,10.10
2018-01-05T20:52:24.732Z,10.20
2018-01-05T20:54:52.379Z,10.10
2018-01-05T20:57:20.719Z,10.10
2018-01-05T20:59:48.298Z,10.10
2018-01-05T21:02:15.868Z,10.10
2018-01-05T21:04:43.438Z,10.10
2018-01-05T21:07:11.045Z,10.20
2018-01-05T21:09:38.598Z,10.10
2018-01-05T21:12:06.162Z,10.10
2018-01-05T21:14:33.890Z,10.10
2018-01-05T21:17:01.437Z,10.10
2018-01-05T21:19:29.116Z,10.00
2018-01-05T21:21:56.652Z,10.00
2018-01-05T21:24:24.326Z,10.10
2018-01-05T21:26:51.948Z,10.00
2018-01-05T21:29:19.481Z,10.00
2018-01-05T21:31:47.046Z,10.00
2018-01-05T21:34:14.585Z,10.10
2018-01-05T21:36:42.143Z,10.20
2018-01-05T21:39:09.674Z,10.10
2018-01-05T21:41:37.221Z,10.10
2018-01-05T21:44:05.712Z,10.10
2018-01-05T21:46:34.010Z,10.10
2018-01-05T21:49:01.570Z,10.10
2018-01-05T21:51:29.281Z,10.20
2018-01-05T21:53:56.844Z,10.20
2018-01-05T21:56:24.390Z,10.30
2018-01-05T21:58:52.023Z,10.30
2018-01-05T22:01:19.536Z,10.30
2018-01-05T22:03:47.081Z,10.40
2018-01-05T22:06:14.663Z,10.30
2018-01-05T22:08:42.204Z,10.20
2018-01-05T22:11:09.741Z,10.30
2018-01-05T22:13:37.305Z,10.40
2018-01-05T22:16:04.856Z,10.40
2018-01-05T22:18:32.411Z,10.30
2018-01-05T22:20:59.975Z,10.10
2018-01-05T22:23:27.543Z,10.40
2018-01-05T22:25:55.069Z,10.40
2018-01-05T22:28:22.646Z,10.50
2018-01-05T22:30:50.950Z,10.60
2018-01-05T22:33:18.586Z,10.50
2018-01-05T22:35:46.143Z,10.60
2018-01-05T22:38:14.437Z,10.60
2018-01-05T22:40:41.954Z,10.60
2018-01-05T22:43:09.490Z,10.70
2018-01-05T22:45:37.034Z,10.70
2018-01-05T22:48:04.691Z,10.70
2018-01-05T22:50:32.513Z,10.70
2018-01-05T22:53:00.055Z,10.70
2018-01-05T22:55:28.359Z,10.70
2018-01-05T22:57:56.002Z,10.70
2018-01-05T23:00:24.486Z,10.80
2018-01-05T23:02:52.346Z,10.50
2018-01-05T23:05:20.668Z,10.70
2018-01-05T23:07:48.201Z,10.80
2018-01-05T23:10:16.490Z,10.70
2018-01-05T23:12:44.041Z,10.60
2018-01-05T23:15:11.622Z,10.70
2018-01-05T23:17:39.190Z,10.60
2018-01-05T23:20:06.773Z,10.60
2018-01-05T23:22:35.304Z,10.60
2018-01-05T23:25:02.858Z,10.60
2018-01-05T23:27:30.410Z,10.60
2018-01-05T23:29:57.954Z,10.70
2018-01-05T23:32:25.556Z,10.50
2018-01-05T23:34:53.241Z,10.60
2018-01-05T23:37:20.796Z,10.60
2018-01-05T23:39:48.338Z,10.70
2018-01-05T23:42:16.656Z,10.60
2018-01-05T23:44:45.098Z,10.60
2018-01-05T23:47:12.668Z,10.60
2018-01-05T23:49:40.220Z,10.60
2018-01-05T23:52:07.757Z,10.70
2018-01-05T23:54:36.204Z,10.60
2018-01-05T23:57:03.771Z,10.60
2018-01-05T23:59:31.326Z,10.50
